Time;durP1;ratioP1;P1;durP2;ratioP2;P2;SDS_P1;SDS_P2;PMS_P1;PMS_P2;Temp;Humidity;BMP_temperature;BMP_pressure;BME280_temperature;BME280_humidity;BME280_pressure;Samples;Min_cycle;Max_cycle;Signal;HPM_P1;HPM_P2
2022/02/13 00:00:07;;;;;;;;;;;;;;;;;;5093606;28;19920;-77
2022/02/13 00:02:38;;;;;;;;;;;;;;;;;;5094135;28;20354;-78
2022/02/13 00:05:03;;;;;;;;;;;;;;;;;;5092215;28;20530;-77
2022/02/13 00:07:30;;;;;;;;;;;;;;;;;;5093688;28;20006;-78
2022/02/13 00:09:55;;;;;;;;;;;;;;;;;;5093268;28;19966;-78
2022/02/13 00:12:21;;;;;;;;;;;;;;;;;;5093199;28;19978;-78
2022/02/13 00:14:46;;;;;;;;;;;;;;;;;;5080855;28;19923;-77
2022/02/13 00:17:11;;;;;;;;;;;;;;;;;;5073383;28;19917;-77
2022/02/13 00:19:36;;;;;;;;;;;;;;;;;;5071922;28;20248;-77
2022/02/13 00:22:02;;;;;;;;;;;;;;;;;;5073324;28;20304;-77
2022/02/13 00:24:27;;;;;;;;;;;;;;;;;;5072897;28;19939;-78
2022/02/13 00:26:52;;;;;;;;;;;;;;;;;;5076745;28;19970;-77
2022/02/13 00:29:18;;;;;;;;;;;;;;;;;;5076847;28;19963;-77
2022/02/13 00:31:43;;;;;;;;;;;;;;;;;;5076628;28;19916;-77
2022/02/13 00:34:08;;;;;;;;;;;;;;;;;;5076757;28;19923;-77
2022/02/13 00:36:34;;;;;;;;;;;;;;;;;;5075692;28;19982;-77
2022/02/13 00:39:00;;;;;;;;;;;;;;;;;;5076728;28;19916;-77
2022/02/13 00:41:25;;;;;;;;;;;;;;;;;;5076602;28;19916;-78
2022/02/13 00:43:51;;;;;;;;;;;;;;;;;;5086562;28;19919;-77
2022/02/13 00:46:17;;;;;;;;;;;;;;;;;;5117329;28;20010;-77
2022/02/13 00:48:42;;;;;;;;;;;;;;;;;;5117081;28;19923;-78
2022/02/13 00:51:07;;;;;;;;;;;;;;;;;;5117285;28;19927;-77
2022/02/13 00:53:33;;;;;;;;;;;;;;;;;;5117223;28;20361;-78
2022/02/13 00:55:58;;;;;;;;;;;;;;;;;;5116872;28;20416;-78
2022/02/13 00:58:27;;;;;;;;;;;;;;;;;;5116695;28;19920;-77
2022/02/13 01:00:52;;;;;;;;;;;;;;;;;;5116868;28;19916;-77
2022/02/13 01:03:17;;;;;;;;;;;;;;;;;;5103442;28;19916;-77
2022/02/13 01:05:43;;;;;;;;;;;;;;;;;;5096203;28;19920;-77
2022/02/13 01:08:09;;;;;;;;;;;;;;;;;;5096390;28;19967;-77
2022/02/13 01:10:35;;;;;;;;;;;;;;;;;;5095800;28;19947;-77
2022/02/13 01:13:01;;;;;;;;;;;;;;;;;;5096350;28;19916;-77
2022/02/13 01:15:27;;;;;;;;;;;;;;;;;;5095024;28;19970;-77
2022/02/13 01:17:52;;;;;;;;;;;;;;;;;;5096379;28;19951;-77
2022/02/13 01:20:17;;;;;;;;;;;;;;;;;;5095018;28;20332;-77
2022/02/13 01:22:43;;;;;;;;;;;;;;;;;;5096271;28;19920;-77
2022/02/13 01:25:08;;;;;;;;;;;;;;;;;;5096000;28;19916;-77
2022/02/13 01:27:33;;;;;;;;;;;;;;;;;;5095837;28;19994;-77
2022/02/13 01:29:59;;;;;;;;;;;;;;;;;;5095690;28;19916;-78
2022/02/13 01:32:26;;;;;;;;;;;;;;;;;;5101591;28;19923;-77
2022/02/13 01:34:51;;;;;;;;;;;;;;;;;;5114953;28;19916;-77
2022/02/13 01:37:17;;;;;;;;;;;;;;;;;;5115141;28;19915;-78
2022/02/13 01:39:45;;;;;;;;;;;;;;;;;;5116044;28;19961;-77
2022/02/13 01:42:10;;;;;;;;;;;;;;;;;;5115976;28;20357;-77
2022/02/13 01:44:36;;;;;;;;;;;;;;;;;;5114947;28;19923;-77
2022/02/13 01:47:02;;;;;;;;;;;;;;;;;;5115815;28;19927;-77
2022/02/13 01:49:27;;;;;;;;;;;;;;;;;;5115507;28;20357;-77
2022/02/13 01:51:57;;;;;;;;;;;;;;;;;;5116006;28;19920;-77
2022/02/13 01:54:23;;;;;;;;;;;;;;;;;;5115750;28;19924;-77
2022/02/13 01:56:48;;;;;;;;;;;;;;;;;;5115740;28;19915;-77
2022/02/13 01:59:14;;;;;;;;;;;;;;;;;;5115805;28;19923;-76
2022/02/13 02:01:40;;;;;;;;;;;;;;;;;;5115901;28;19915;-77
2022/02/13 02:04:07;;;;;;;;;;;;;;;;;;5094776;28;21349;-77
2022/02/13 02:06:33;;;;;;;;;;;;;;;;;;5095150;28;19926;-77
2022/02/13 02:08:59;;;;;;;;;;;;;;;;;;5095138;28;19966;-77
2022/02/13 02:11:24;;;;;;;;;;;;;;;;;;5095080;28;19916;-77
2022/02/13 02:13:49;;;;;;;;;;;;;;;;;;5094030;28;19941;-77
2022/02/13 02:16:15;;;;;;;;;;;;;;;;;;5094870;28;19945;-76
2022/02/13 02:18:40;;;;;;;;;;;;;;;;;;5095048;28;19916;-76
2022/02/13 02:21:08;;;;;;;;;;;;;;;;;;5094913;28;19916;-77
2022/02/13 02:23:33;;;;;;;;;;;;;;;;;;5094997;28;19931;-77
2022/02/13 02:25:58;;;;;;;;;;;;;;;;;;5094964;28;19916;-77
2022/02/13 02:28:24;;;;;;;;;;;;;;;;;;5094924;28;20380;-77
2022/02/13 02:30:49;;;;;;;;;;;;;;;;;;5102375;28;19923;-77
2022/02/13 02:33:15;;;;;;;;;;;;;;;;;;5115261;28;19923;-77
2022/02/13 02:35:40;;;;;;;;;;;;;;;;;;5114502;28;19960;-78
2022/02/13 02:38:06;;;;;;;;;;;;;;;;;;5114857;28;20368;-77
2022/02/13 02:40:32;;;;;;;;;;;;;;;;;;5115106;28;19916;-77
2022/02/13 02:42:57;;;;;;;;;;;;;;;;;;5113665;28;20006;-76
2022/02/13 02:45:23;;;;;;;;;;;;;;;;;;5114638;28;19927;-77
2022/02/13 02:47:48;;;;;;;;;;;;;;;;;;5114754;28;19973;-77
2022/02/13 02:50:14;;;;;;;;;;;;;;;;;;5114545;28;20428;-76
2022/02/13 02:52:39;;;;;;;;;;;;;;;;;;5114761;28;19915;-77
2022/02/13 02:55:05;;;;;;;;;;;;;;;;;;5114666;28;20327;-77
2022/02/13 02:57:30;;;;;;;;;;;;;;;;;;5114772;28;19998;-77
2022/02/13 02:59:58;;;;;;;;;;;;;;;;;;5112064;28;19920;-77
2022/02/13 03:02:24;;;;;;;;;;;;;;;;;;5093362;28;19920;-76
2022/02/13 03:04:49;;;;;;;;;;;;;;;;;;5093725;28;19916;-77
2022/02/13 03:07:14;;;;;;;;;;;;;;;;;;5092935;28;20057;-77
2022/02/13 03:09:40;;;;;;;;;;;;;;;;;;5094109;28;19973;-77
2022/02/13 03:12:05;;;;;;;;;;;;;;;;;;5092726;28;19977;-77
2022/02/13 03:14:30;;;;;;;;;;;;;;;;;;5092868;28;19916;-77
2022/02/13 03:16:56;;;;;;;;;;;;;;;;;;5094115;28;19916;-77
2022/02/13 03:19:21;;;;;;;;;;;;;;;;;;5093847;28;19923;-77
2022/02/13 03:21:47;;;;;;;;;;;;;;;;;;5093999;28;19916;-77
2022/02/13 03:24:12;;;;;;;;;;;;;;;;;;5094164;28;19923;-77
2022/02/13 03:26:38;;;;;;;;;;;;;;;;;;5093849;28;19916;-78
2022/02/13 03:29:04;;;;;;;;;;;;;;;;;;5092476;28;19920;-77
2022/02/13 03:31:29;;;;;;;;;;;;;;;;;;5093736;28;19999;-77
2022/02/13 03:33:54;;;;;;;;;;;;;;;;;;5093858;28;19927;-77
2022/02/13 03:36:20;;;;;;;;;;;;;;;;;;5092566;28;19912;-77
2022/02/13 03:38:45;;;;;;;;;;;;;;;;;;5093863;28;20330;-77
2022/02/13 03:41:11;;;;;;;;;;;;;;;;;;5093676;28;19986;-77
2022/02/13 03:43:36;;;;;;;;;;;;;;;;;;5093697;28;19959;-77
2022/02/13 03:46:01;;;;;;;;;;;;;;;;;;5093813;28;20408;-77
2022/02/13 03:48:27;;;;;;;;;;;;;;;;;;5093656;28;19927;-77
2022/02/13 03:50:52;;;;;;;;;;;;;;;;;;5093504;28;19924;-77
2022/02/13 03:53:17;;;;;;;;;;;;;;;;;;5092413;28;19916;-78
2022/02/13 03:55:43;;;;;;;;;;;;;;;;;;5093594;28;19916;-77
2022/02/13 03:58:08;;;;;;;;;;;;;;;;;;5093522;28;20255;-77
2022/02/13 04:00:34;;;;;;;;;;;;;;;;;;5095253;28;19916;-77
2022/02/13 04:02:59;;;;;;;;;;;;;;;;;;5106207;28;19916;-77
2022/02/13 04:05:26;;;;;;;;;;;;;;;;;;5117928;28;19923;-79
2022/02/13 04:07:51;;;;;;;;;;;;;;;;;;5118211;28;19989;-77
2022/02/13 04:10:16;;;;;;;;;;;;;;;;;;5117675;28;19927;-77
2022/02/13 04:12:42;;;;;;;;;;;;;;;;;;5117757;28;19970;-77
2022/02/13 04:15:08;;;;;;;;;;;;;;;;;;5117759;28;20284;-77
2022/02/13 04:17:33;;;;;;;;;;;;;;;;;;5118026;28;19916;-77
2022/02/13 04:19:59;;;;;;;;;;;;;;;;;;5117903;28;19984;-77
2022/02/13 04:22:24;;;;;;;;;;;;;;;;;;5117849;28;19926;-77
2022/02/13 04:24:50;;;;;;;;;;;;;;;;;;5117762;28;20357;-77
2022/02/13 04:27:15;;;;;;;;;;;;;;;;;;5117657;28;19916;-77
2022/02/13 04:29:40;;;;;;;;;;;;;;;;;;5117474;28;20013;-77
2022/02/13 04:32:06;;;;;;;;;;;;;;;;;;5116247;28;19916;-77
2022/02/13 04:34:31;;;;;;;;;;;;;;;;;;5096976;28;19939;-77
2022/02/13 04:36:57;;;;;;;;;;;;;;;;;;5097290;28;19931;-76
2022/02/13 04:39:22;;;;;;;;;;;;;;;;;;5096636;28;20389;-77
2022/02/13 04:41:48;;;;;;;;;;;;;;;;;;5097151;28;19986;-77
2022/02/13 04:44:14;;;;;;;;;;;;;;;;;;5095546;28;19916;-77
2022/02/13 04:46:39;;;;;;;;;;;;;;;;;;5096960;28;19985;-77
2022/02/13 04:49:05;;;;;;;;;;;;;;;;;;5096576;28;19920;-77
2022/02/13 04:51:30;;;;;;;;;;;;;;;;;;5096374;28;20419;-77
2022/02/13 04:53:56;;;;;;;;;;;;;;;;;;5095653;28;20026;-77
2022/02/13 04:56:21;;;;;;;;;;;;;;;;;;5096943;28;19967;-77
2022/02/13 04:58:47;;;;;;;;;;;;;;;;;;5096690;28;19962;-77
2022/02/13 05:01:13;;;;;;;;;;;;;;;;;;5096549;28;20301;-77
2022/02/13 05:03:38;;;;;;;;;;;;;;;;;;5096665;28;19916;-77
2022/02/13 05:06:04;;;;;;;;;;;;;;;;;;5096407;28;19960;-77
2022/02/13 05:08:31;;;;;;;;;;;;;;;;;;5095093;28;19920;-77
2022/02/13 05:10:56;;;;;;;;;;;;;;;;;;5096204;28;20019;-77
2022/02/13 05:13:22;;;;;;;;;;;;;;;;;;5096381;28;19925;-77
2022/02/13 05:15:47;;;;;;;;;;;;;;;;;;5096530;28;19916;-77
2022/02/13 05:18:13;;;;;;;;;;;;;;;;;;5096038;28;19942;-77
2022/02/13 05:20:38;;;;;;;;;;;;;;;;;;5096157;28;19915;-77
2022/02/13 05:23:03;;;;;;;;;;;;;;;;;;5096179;28;20293;-77
2022/02/13 05:25:29;;;;;;;;;;;;;;;;;;5096022;28;20293;-77
2022/02/13 05:27:54;;;;;;;;;;;;;;;;;;5096020;28;19966;-77
2022/02/13 05:30:19;;;;;;;;;;;;;;;;;;5095881;28;20354;-77
2022/02/13 05:32:45;;;;;;;;;;;;;;;;;;5095898;28;19915;-77
2022/02/13 05:35:10;;;;;;;;;;;;;;;;;;5096008;28;19923;-77
2022/02/13 05:37:39;;;;;;;;;;;;;;;;;;5106511;28;19923;-78
2022/02/13 05:40:04;;;;;;;;;;;;;;;;;;5116228;28;20010;-77
2022/02/13 05:42:30;;;;;;;;;;;;;;;;;;5115831;28;19967;-77
2022/02/13 05:44:56;;;;;;;;;;;;;;;;;;5116185;28;19922;-77
2022/02/13 05:47:21;;;;;;;;;;;;;;;;;;5116209;28;20329;-77
2022/02/13 05:49:47;;;;;;;;;;;;;;;;;;5115500;28;20014;-77
2022/02/13 05:52:12;;;;;;;;;;;;;;;;;;5115177;28;20049;-77
2022/02/13 05:54:37;;;;;;;;;;;;;;;;;;5115836;28;19923;-77
2022/02/13 05:57:03;;;;;;;;;;;;;;;;;;5114797;28;19919;-78
2022/02/13 05:59:28;;;;;;;;;;;;;;;;;;5115418;28;19923;-77
2022/02/13 06:01:53;;;;;;;;;;;;;;;;;;5097078;28;20028;-77
2022/02/13 06:04:20;;;;;;;;;;;;;;;;;;5095295;28;19916;-77
2022/02/13 06:06:46;;;;;;;;;;;;;;;;;;5095176;28;19994;-76
2022/02/13 06:09:12;;;;;;;;;;;;;;;;;;5095203;28;19920;-77
2022/02/13 06:11:37;;;;;;;;;;;;;;;;;;5093980;28;20444;-76
2022/02/13 06:14:02;;;;;;;;;;;;;;;;;;5095156;28;19963;-78
2022/02/13 06:16:28;;;;;;;;;;;;;;;;;;5095165;28;19923;-77
2022/02/13 06:18:54;;;;;;;;;;;;;;;;;;5076925;28;19912;-77
2022/02/13 06:21:21;;;;;;;;;;;;;;;;;;5076758;28;19923;-76
2022/02/13 06:23:47;;;;;;;;;;;;;;;;;;5094459;28;20301;-76
2022/02/13 06:26:13;;;;;;;;;;;;;;;;;;5094894;28;20010;-77
2022/02/13 06:28:39;;;;;;;;;;;;;;;;;;5094859;28;19920;-77
2022/02/13 06:31:05;;;;;;;;;;;;;;;;;;5094135;28;20368;-76
2022/02/13 06:33:30;;;;;;;;;;;;;;;;;;5095040;28;19958;-77
2022/02/13 06:35:55;;;;;;;;;;;;;;;;;;5094537;28;19920;-77
2022/02/13 06:38:21;;;;;;;;;;;;;;;;;;5094760;28;19916;-77
2022/02/13 06:40:46;;;;;;;;;;;;;;;;;;5094820;28;19916;-77
2022/02/13 06:43:11;;;;;;;;;;;;;;;;;;5094549;28;19916;-77
2022/02/13 06:45:37;;;;;;;;;;;;;;;;;;5094684;28;19922;-76
2022/02/13 06:48:02;;;;;;;;;;;;;;;;;;5094428;28;19969;-76
2022/02/13 06:50:28;;;;;;;;;;;;;;;;;;5094583;28;19920;-76
2022/02/13 06:52:54;;;;;;;;;;;;;;;;;;5093222;28;19916;-78
2022/02/13 06:55:19;;;;;;;;;;;;;;;;;;5094212;28;19920;-77
2022/02/13 06:57:45;;;;;;;;;;;;;;;;;;5094488;28;19938;-76
2022/02/13 07:00:11;;;;;;;;;;;;;;;;;;5094238;28;19955;-76
2022/02/13 07:02:37;;;;;;;;;;;;;;;;;;5100326;28;19920;-76
2022/02/13 07:05:02;;;;;;;;;;;;;;;;;;5114552;28;19916;-77
2022/02/13 07:07:28;;;;;;;;;;;;;;;;;;5114479;28;19916;-77
2022/02/13 07:09:53;;;;;;;;;;;;;;;;;;5114658;28;19976;-77
2022/02/13 07:12:19;;;;;;;;;;;;;;;;;;5114381;28;19916;-76
2022/02/13 07:14:46;;;;;;;;;;;;;;;;;;5114141;28;19916;-77
2022/02/13 07:17:12;;;;;;;;;;;;;;;;;;5113337;28;19955;-76
2022/02/13 07:19:37;;;;;;;;;;;;;;;;;;5114409;28;20329;-77
2022/02/13 07:22:03;;;;;;;;;;;;;;;;;;5114247;28;20006;-77
2022/02/13 07:24:29;;;;;;;;;;;;;;;;;;5113826;28;19958;-76
2022/02/13 07:26:55;;;;;;;;;;;;;;;;;;5114515;28;19916;-76
2022/02/13 07:29:20;;;;;;;;;;;;;;;;;;5114485;28;19926;-76
2022/02/13 07:31:45;;;;;;;;;;;;;;;;;;5096384;28;19916;-76
2022/02/13 07:34:11;;;;;;;;;;;;;;;;;;5093447;28;20019;-75
2022/02/13 07:36:36;;;;;;;;;;;;;;;;;;5093529;28;19977;-76
2022/02/13 07:39:02;;;;;;;;;;;;;;;;;;5093832;28;19955;-75
2022/02/13 07:41:28;;;;;;;;;;;;;;;;;;5092405;28;20006;-76
2022/02/13 07:43:54;;;;;;;;;;;;;;;;;;5094351;28;19916;-75
2022/02/13 07:46:20;;;;;;;;;;;;;;;;;;5093718;28;20358;-75
2022/02/13 07:48:46;;;;;;;;;;;;;;;;;;5094325;28;19927;-75
2022/02/13 07:51:12;;;;;;;;;;;;;;;;;;5091587;28;19928;-76
2022/02/13 07:53:38;;;;;;;;;;;;;;;;;;5091183;28;19923;-77
2022/02/13 07:56:03;;;;;;;;;;;;;;;;;;5093543;28;19955;-76
2022/02/13 07:58:32;;;;;;;;;;;;;;;;;;5090536;28;20396;-76
2022/02/13 08:00:58;;;;;;;;;;;;;;;;;;5093533;28;19927;-76
2022/02/13 08:03:23;;;;;;;;;;;;;;;;;;5093725;28;19916;-77
2022/02/13 08:05:48;;;;;;;;;;;;;;;;;;5093827;28;19916;-77
2022/02/13 08:08:15;;;;;;;;;;;;;;;;;;5092399;28;20060;-77
2022/02/13 08:10:40;;;;;;;;;;;;;;;;;;5093250;28;20018;-75
2022/02/13 08:13:06;;;;;;;;;;;;;;;;;;5093549;28;20011;-75
2022/02/13 08:15:32;;;;;;;;;;;;;;;;;;5093359;28;19912;-75
2022/02/13 08:18:05;;;;;;;;;;;;;;;;;;5092345;28;19967;-75
2022/02/13 08:20:30;;;;;;;;;;;;;;;;;;5093280;28;19916;-75
2022/02/13 08:22:55;;;;;;;;;;;;;;;;;;5093469;28;20372;-75
2022/02/13 08:25:20;;;;;;;;;;;;;;;;;;5093005;28;19961;-75
2022/02/13 08:27:46;;;;;;;;;;;;;;;;;;5093240;28;19920;-75
2022/02/13 08:30:11;;;;;;;;;;;;;;;;;;5093274;28;19916;-75
2022/02/13 08:32:36;;;;;;;;;;;;;;;;;;5093412;28;19922;-75
2022/02/13 08:35:02;;;;;;;;;;;;;;;;;;5093369;28;20078;-75
2022/02/13 08:37:27;;;;;;;;;;;;;;;;;;5093413;28;20464;-75
2022/02/13 08:39:53;;;;;;;;;;;;;;;;;;5093128;28;19920;-75
2022/02/13 08:42:18;;;;;;;;;;;;;;;;;;5093421;28;20277;-75
2022/02/13 08:44:43;;;;;;;;;;;;;;;;;;5093166;28;19947;-75
2022/02/13 08:47:08;;;;;;;;;;;;;;;;;;5077518;28;19923;-75
2022/02/13 08:49:34;;;;;;;;;;;;;;;;;;5096721;28;19919;-76
2022/02/13 08:51:59;;;;;;;;;;;;;;;;;;5095454;28;19920;-75
2022/02/13 08:54:24;;;;;;;;;;;;;;;;;;5096590;28;20289;-75
2022/02/13 08:56:50;;;;;;;;;;;;;;;;;;5096533;28;19916;-75
2022/02/13 08:59:15;;;;;;;;;;;;;;;;;;5096696;28;19916;-75
2022/02/13 09:01:43;;;;;;;;;;;;;;;;;;5095306;28;20056;-75
2022/02/13 09:04:08;;;;;;;;;;;;;;;;;;5097184;28;20006;-78
2022/02/13 09:06:34;;;;;;;;;;;;;;;;;;5096870;28;20285;-76
2022/02/13 09:08:59;;;;;;;;;;;;;;;;;;5096396;28;19920;-75
2022/02/13 09:11:24;;;;;;;;;;;;;;;;;;5095205;28;20395;-76
2022/02/13 09:13:53;;;;;;;;;;;;;;;;;;5096483;28;19916;-76
2022/02/13 09:16:18;;;;;;;;;;;;;;;;;;5096484;28;19919;-76
2022/02/13 09:18:43;;;;;;;;;;;;;;;;;;5096198;28;19932;-77
2022/02/13 09:21:09;;;;;;;;;;;;;;;;;;5096275;28;20285;-77
2022/02/13 09:23:36;;;;;;;;;;;;;;;;;;5096410;28;19916;-78
2022/02/13 09:26:02;;;;;;;;;;;;;;;;;;5096281;28;19916;-78
2022/02/13 09:28:27;;;;;;;;;;;;;;;;;;5095811;28;20306;-78
2022/02/13 09:30:53;;;;;;;;;;;;;;;;;;5094794;28;19920;-76
2022/02/13 09:33:19;;;;;;;;;;;;;;;;;;5096156;28;20266;-76
2022/02/13 09:35:45;;;;;;;;;;;;;;;;;;5095905;28;19960;-77
2022/02/13 09:38:15;;;;;;;;;;;;;;;;;;5088113;28;19942;-79
2022/02/13 09:40:40;;;;;;;;;;;;;;;;;;5076520;28;19939;-78
2022/02/13 09:43:06;;;;;;;;;;;;;;;;;;5074947;28;20367;-81
2022/02/13 09:45:31;;;;;;;;;;;;;;;;;;5077890;28;19916;-77
2022/02/13 09:48:00;;;;;;;;;;;;;;;;;;5075971;28;19924;-77
2022/02/13 09:50:26;;;;;;;;;;;;;;;;;;5075496;28;19927;-76
2022/02/13 09:52:54;;;;;;;;;;;;;;;;;;5074325;28;19916;-77
2022/02/13 09:55:25;;;;;;;;;;;;;;;;;;5075493;28;20366;-78
2022/02/13 09:57:59;;;;;;;;;;;;;;;;;;5073056;28;19916;-76
2022/02/13 10:00:25;;;;;;;;;;;;;;;;;;5080045;28;20411;-76
2022/02/13 10:02:50;;;;;;;;;;;;;;;;;;5095695;28;19920;-76
2022/02/13 10:05:20;;;;;;;;;;;;;;;;;;5095551;28;19924;-76
2022/02/13 10:07:49;;;;;;;;;;;;;;;;;;5095045;28;20007;-81
2022/02/13 10:10:15;;;;;;;;;;;;;;;;;;5097472;28;20255;-77
2022/02/13 10:12:44;;;;;;;;;;;;;;;;;;5098027;28;19923;-78
2022/02/13 10:15:23;;;;;;;;;;;;;;;;;;5096393;28;20374;-77
2022/02/13 10:18:14;;;;;;;;;;;;;;;;;;5096008;28;19916;-78
2022/02/13 10:20:41;;;;;;;;;;;;;;;;;;5092071;28;19920;-81
2022/02/13 10:23:08;;;;;;;;;;;;;;;;;;5096885;28;19916;-78
2022/02/13 10:25:33;;;;;;;;;;;;;;;;;;5095256;28;20495;-81
2022/02/13 10:27:58;;;;;;;;;;;;;;;;;;5096368;28;19916;-81
2022/02/13 10:30:43;;;;;;;;;;;;;;;;;;5095646;28;19920;-82
2022/02/13 10:33:26;;;;;;;;;;;;;;;;;;5098507;28;19927;-78
2022/02/13 10:36:10;;;;;;;;;;;;;;;;;;5098582;28;19926;-80
2022/02/13 10:38:36;;;;;;;;;;;;;;;;;;5098040;28;20014;-79
2022/02/13 10:41:14;;;;;;;;;;;;;;;;;;5096252;28;20433;-83
2022/02/13 10:43:51;;;;;;;;;;;;;;;;;;5098743;28;19915;-81
2022/02/13 10:46:17;;;;;;;;;;;;;;;;;;5080017;28;19927;-80
2022/02/13 10:48:44;;;;;;;;;;;;;;;;;;5097562;28;20391;-80
2022/02/13 10:51:10;;;;;;;;;;;;;;;;;;5096734;28;19920;-81
2022/02/13 10:53:36;;;;;;;;;;;;;;;;;;5097511;28;19977;-82
2022/02/13 10:56:01;;;;;;;;;;;;;;;;;;5098990;28;19916;-82
2022/02/13 10:58:27;;;;;;;;;;;;;;;;;;5096554;28;19917;-82
2022/02/13 11:00:58;;;;;;;;;;;;;;;;;;5099275;28;19916;-80
2022/02/13 11:03:24;;;;;;;;;;;;;;;;;;5097932;28;19983;-81
2022/02/13 11:05:50;;;;;;;;;;;;;;;;;;5097648;28;20000;-82
2022/02/13 11:08:17;;;;;;;;;;;;;;;;;;5080063;28;20335;-82
2022/02/13 11:10:48;;;;;;;;;;;;;;;;;;5096621;28;20385;-82
2022/02/13 11:13:18;;;;;;;;;;;;;;;;;;5097061;28;19920;-82
2022/02/13 11:15:44;;;;;;;;;;;;;;;;;;5098077;28;19920;-81
2022/02/13 11:18:21;;;;;;;;;;;;;;;;;;5097261;28;19962;-84
2022/02/13 11:20:48;;;;;;;;;;;;;;;;;;5098054;28;19916;-84
2022/02/13 11:23:22;;;;;;;;;;;;;;;;;;5099077;28;19920;-80
2022/02/13 11:26:06;;;;;;;;;;;;;;;;;;5099130;28;19923;-82
2022/02/13 11:28:41;;;;;;;;;;;;;;;;;;5098347;28;20300;-81
2022/02/13 11:31:06;;;;;;;;;;;;;;;;;;5096000;28;19969;-78
2022/02/13 11:33:36;;;;;;;;;;;;;;;;;;5096588;28;19916;-81
2022/02/13 11:36:05;;;;;;;;;;;;;;;;;;5096397;28;19920;-81
2022/02/13 11:38:37;;;;;;;;;;;;;;;;;;5099648;28;19916;-81
2022/02/13 11:41:02;;;;;;;;;;;;;;;;;;5098933;28;19916;-80
2022/02/13 11:43:46;;;;;;;;;;;;;;;;;;5100250;28;20385;-80
2022/02/13 11:46:12;;;;;;;;;;;;;;;;;;5098399;28;20421;-79
2022/02/13 11:48:43;;;;;;;;;;;;;;;;;;5098407;28;19966;-79
2022/02/13 11:51:10;;;;;;;;;;;;;;;;;;5099873;28;19963;-80
2022/02/13 11:53:36;;;;;;;;;;;;;;;;;;5100865;28;19916;-79
2022/02/13 11:56:20;;;;;;;;;;;;;;;;;;5102927;28;19923;-80
2022/02/13 11:58:46;;;;;;;;;;;;;;;;;;5101864;28;20006;-79
2022/02/13 12:01:29;;;;;;;;;;;;;;;;;;5101305;28;19955;-80
2022/02/13 12:03:55;;;;;;;;;;;;;;;;;;5100914;28;20007;-81
2022/02/13 12:06:28;;;;;;;;;;;;;;;;;;5103048;28;19912;-81
2022/02/13 12:08:55;;;;;;;;;;;;;;;;;;5102309;28;19924;-83
2022/02/13 12:11:27;;;;;;;;;;;;;;;;;;5096356;28;20004;-78
2022/02/13 12:13:53;;;;;;;;;;;;;;;;;;5095446;28;19922;-78
2022/02/13 12:16:23;;;;;;;;;;;;;;;;;;5093100;28;19915;-78
2022/02/13 12:18:50;;;;;;;;;;;;;;;;;;5095926;28;19923;-78
2022/02/13 12:21:16;;;;;;;;;;;;;;;;;;5099957;28;19916;-80
2022/02/13 12:23:42;;;;;;;;;;;;;;;;;;5103530;28;20019;-78
2022/02/13 12:26:08;;;;;;;;;;;;;;;;;;5104082;28;19966;-79
2022/02/13 12:28:34;;;;;;;;;;;;;;;;;;5085867;28;19924;-79
2022/02/13 12:31:00;;;;;;;;;;;;;;;;;;5103934;28;19923;-80
2022/02/13 12:33:27;;;;;;;;;;;;;;;;;;5103958;28;19916;-79
2022/02/13 12:35:57;;;;;;;;;;;;;;;;;;5098914;28;19923;-77
2022/02/13 12:38:23;;;;;;;;;;;;;;;;;;5097351;28;20293;-78
2022/02/13 12:40:48;;;;;;;;;;;;;;;;;;5095546;28;19916;-78
2022/02/13 12:43:18;;;;;;;;;;;;;;;;;;5096579;28;20414;-78
2022/02/13 12:45:45;;;;;;;;;;;;;;;;;;5096537;28;20389;-77
2022/02/13 12:48:11;;;;;;;;;;;;;;;;;;5096729;28;19920;-77
2022/02/13 12:50:47;;;;;;;;;;;;;;;;;;5096238;28;19967;-77
2022/02/13 12:53:13;;;;;;;;;;;;;;;;;;5096657;28;20369;-77
2022/02/13 12:55:40;;;;;;;;;;;;;;;;;;5096615;28;19916;-77
2022/02/13 12:58:06;;;;;;;;;;;;;;;;;;5095624;28;19963;-78
2022/02/13 13:00:33;;;;;;;;;;;;;;;;;;5095840;28;20274;-78
2022/02/13 13:03:13;;;;;;;;;;;;;;;;;;5096698;28;20546;-77
2022/02/13 13:05:40;;;;;;;;;;;;;;;;;;5096140;28;19916;-78
2022/02/13 13:08:05;;;;;;;;;;;;;;;;;;5095081;28;20340;-78
2022/02/13 13:10:30;;;;;;;;;;;;;;;;;;5096605;28;19942;-77
2022/02/13 13:13:00;;;;;;;;;;;;;;;;;;5095205;28;19912;-77
2022/02/13 13:15:25;;;;;;;;;;;;;;;;;;5096200;28;20450;-77
2022/02/13 13:17:50;;;;;;;;;;;;;;;;;;5096126;28;20014;-77
2022/02/13 13:20:24;;;;;;;;;;;;;;;;;;5095823;28;19954;-78
2022/02/13 13:23:10;;;;;;;;;;;;;;;;;;5095220;28;19917;-78
2022/02/13 13:25:35;;;;;;;;;;;;;;;;;;5095465;28;20484;-77
2022/02/13 13:28:11;;;;;;;;;;;;;;;;;;5096130;28;20023;-77
2022/02/13 13:30:36;;;;;;;;;;;;;;;;;;5101641;28;19923;-77
2022/02/13 13:33:03;;;;;;;;;;;;;;;;;;5116280;27;19916;-78
2022/02/13 13:35:29;;;;;;;;;;;;;;;;;;5116310;28;19916;-77
2022/02/13 13:37:54;;;;;;;;;;;;;;;;;;5115661;28;19916;-77
2022/02/13 13:40:25;;;;;;;;;;;;;;;;;;5116294;28;19916;-77
2022/02/13 13:42:54;;;;;;;;;;;;;;;;;;5115838;28;19916;-78
2022/02/13 13:45:23;;;;;;;;;;;;;;;;;;5114345;28;19916;-78
2022/02/13 13:47:50;;;;;;;;;;;;;;;;;;5115943;28;20384;-78
2022/02/13 13:50:19;;;;;;;;;;;;;;;;;;5115929;28;19930;-78
2022/02/13 13:52:45;;;;;;;;;;;;;;;;;;5116136;28;19915;-77
2022/02/13 13:55:11;;;;;;;;;;;;;;;;;;5115696;28;20277;-77
2022/02/13 13:57:36;;;;;;;;;;;;;;;;;;5116065;28;19919;-77
2022/02/13 14:00:04;;;;;;;;;;;;;;;;;;5114067;28;19920;-77
2022/02/13 14:02:47;;;;;;;;;;;;;;;;;;5094706;28;20000;-78
2022/02/13 14:05:12;;;;;;;;;;;;;;;;;;5095155;28;19916;-78
2022/02/13 14:07:37;;;;;;;;;;;;;;;;;;5095218;28;19916;-77
2022/02/13 14:10:03;;;;;;;;;;;;;;;;;;5095854;28;19916;-79
2022/02/13 14:12:28;;;;;;;;;;;;;;;;;;5094772;28;19912;-79
2022/02/13 14:14:53;;;;;;;;;;;;;;;;;;5093692;28;20023;-78
2022/02/13 14:17:18;;;;;;;;;;;;;;;;;;5096804;28;19920;-79
2022/02/13 14:19:44;;;;;;;;;;;;;;;;;;5098194;28;19923;-79
2022/02/13 14:22:09;;;;;;;;;;;;;;;;;;5097479;28;20396;-76
2022/02/13 14:24:35;;;;;;;;;;;;;;;;;;5098087;28;19916;-79
2022/02/13 14:27:00;;;;;;;;;;;;;;;;;;5097743;28;20260;-79
2022/02/13 14:29:26;;;;;;;;;;;;;;;;;;5096945;28;19927;-78
2022/02/13 14:31:52;;;;;;;;;;;;;;;;;;5110961;28;19915;-78
2022/02/13 14:34:18;;;;;;;;;;;;;;;;;;5109471;28;19939;-78
2022/02/13 14:36:44;;;;;;;;;;;;;;;;;;5098106;28;19920;-79
2022/02/13 14:39:10;;;;;;;;;;;;;;;;;;5094807;28;19924;-79
2022/02/13 14:41:36;;;;;;;;;;;;;;;;;;5092112;28;20272;-78
2022/02/13 14:44:01;;;;;;;;;;;;;;;;;;5084723;28;19920;-79
2022/02/13 14:46:27;;;;;;;;;;;;;;;;;;5089873;28;19928;-79
2022/02/13 14:48:52;;;;;;;;;;;;;;;;;;5085832;28;19927;-79
2022/02/13 14:51:17;;;;;;;;;;;;;;;;;;5090406;28;19920;-80
2022/02/13 14:53:46;;;;;;;;;;;;;;;;;;5085399;28;19916;-79
2022/02/13 14:56:11;;;;;;;;;;;;;;;;;;5093371;28;20276;-80
2022/02/13 14:58:37;;;;;;;;;;;;;;;;;;5098927;28;19960;-81
2022/02/13 15:01:02;;;;;;;;;;;;;;;;;;5098295;28;20293;-81
2022/02/13 15:03:28;;;;;;;;;;;;;;;;;;5088029;28;19970;-80
2022/02/13 15:05:54;;;;;;;;;;;;;;;;;;5078150;28;20007;-82
2022/02/13 15:08:19;;;;;;;;;;;;;;;;;;5093496;28;20361;-80
2022/02/13 15:10:44;;;;;;;;;;;;;;;;;;5096666;28;19963;-80
2022/02/13 15:13:10;;;;;;;;;;;;;;;;;;5098755;28;20385;-80
2022/02/13 15:15:35;;;;;;;;;;;;;;;;;;5097070;28;19977;-80
2022/02/13 15:18:00;;;;;;;;;;;;;;;;;;5095518;28;19939;-80
2022/02/13 15:20:26;;;;;;;;;;;;;;;;;;5095522;28;19916;-80
2022/02/13 15:22:51;;;;;;;;;;;;;;;;;;5097633;28;20393;-80
2022/02/13 15:25:17;;;;;;;;;;;;;;;;;;5097084;28;19916;-80
2022/02/13 15:27:42;;;;;;;;;;;;;;;;;;5096937;28;19923;-80
2022/02/13 15:30:09;;;;;;;;;;;;;;;;;;5096924;28;19923;-80
2022/02/13 15:32:34;;;;;;;;;;;;;;;;;;5097618;28;19920;-80
2022/02/13 15:34:59;;;;;;;;;;;;;;;;;;5099199;28;19925;-81
2022/02/13 15:37:25;;;;;;;;;;;;;;;;;;5100177;28;19970;-81
2022/02/13 15:39:50;;;;;;;;;;;;;;;;;;5098420;28;19920;-80
2022/02/13 15:42:16;;;;;;;;;;;;;;;;;;5098389;28;19916;-80
2022/02/13 15:44:41;;;;;;;;;;;;;;;;;;5098644;28;19916;-80
2022/02/13 15:47:06;;;;;;;;;;;;;;;;;;5098783;28;20293;-80
2022/02/13 15:49:32;;;;;;;;;;;;;;;;;;5098196;28;19920;-80
2022/02/13 15:51:57;;;;;;;;;;;;;;;;;;5096819;28;19934;-80
2022/02/13 15:54:23;;;;;;;;;;;;;;;;;;5097370;28;19946;-80
2022/02/13 15:56:48;;;;;;;;;;;;;;;;;;5097867;28;20002;-80
2022/02/13 15:59:13;;;;;;;;;;;;;;;;;;5101514;28;20006;-80
2022/02/13 16:01:38;;;;;;;;;;;;;;;;;;5101921;28;20378;-80
2022/02/13 16:04:05;;;;;;;;;;;;;;;;;;5101989;28;19923;-80
2022/02/13 16:06:30;;;;;;;;;;;;;;;;;;5101653;28;19916;-80
2022/02/13 16:08:55;;;;;;;;;;;;;;;;;;5100611;28;19920;-80
2022/02/13 16:11:21;;;;;;;;;;;;;;;;;;5102183;28;19934;-80
2022/02/13 16:13:46;;;;;;;;;;;;;;;;;;5101041;28;19924;-81
2022/02/13 16:16:12;;;;;;;;;;;;;;;;;;5101420;28;19916;-80
2022/02/13 16:18:39;;;;;;;;;;;;;;;;;;5101540;28;19916;-80
2022/02/13 16:21:04;;;;;;;;;;;;;;;;;;5100942;28;19929;-80
2022/02/13 16:26:13;;;;;;;;;;;;;;;;;;5100060;28;20382;-81
2022/02/13 16:28:39;;;;;;;;;;;;;;;;;;5101976;28;19942;-80
2022/02/13 16:31:04;;;;;;;;;;;;;;;;;;5101030;28;19916;-80
2022/02/13 16:33:31;;;;;;;;;;;;;;;;;;5101080;28;20017;-80
2022/02/13 16:35:56;;;;;;;;;;;;;;;;;;5114322;28;19919;-81
2022/02/13 16:38:22;;;;;;;;;;;;;;;;;;5121322;28;19923;-80
2022/02/13 16:40:47;;;;;;;;;;;;;;;;;;5118959;28;20022;-80
2022/02/13 16:43:13;;;;;;;;;;;;;;;;;;5121089;28;20009;-80